sensor_id;sensor_type;location;lat;lon;timestamp;temperature;humidity
6206;DHT22;3136;48.788;9.772;2023-12-14T00:00:07;5.60;1.00
6206;DHT22;3136;48.788;9.772;2023-12-14T00:02:34;5.60;1.00
6206;DHT22;3136;48.788;9.772;2023-12-14T00:04:59;5.60;1.00
6206;DHT22;3136;48.788;9.772;2023-12-14T00:07:25;5.60;1.00
6206;DHT22;3136;48.788;9.772;2023-12-14T00:09:50;5.60;1.00
6206;DHT22;3136;48.788;9.772;2023-12-14T00:12:16;5.60;1.00
6206;DHT22;3136;48.788;9.772;2023-12-14T00:14:41;5.60;1.00
6206;DHT22;3136;48.788;9.772;2023-12-14T00:17:07;5.60;1.00
6206;DHT22;3136;48.788;9.772;2023-12-14T00:19:32;5.60;1.00
6206;DHT22;3136;48.788;9.772;2023-12-14T00:21:58;5.60;1.00
6206;DHT22;3136;48.788;9.772;2023-12-14T00:24:23;5.60;1.00
6206;DHT22;3136;48.788;9.772;2023-12-14T00:26:49;5.60;1.60
6206;DHT22;3136;48.788;9.772;2023-12-14T00:29:15;5.60;1.00
6206;DHT22;3136;48.788;9.772;2023-12-14T00:31:40;5.60;1.00
6206;DHT22;3136;48.788;9.772;2023-12-14T00:34:06;5.60;1.00
6206;DHT22;3136;48.788;9.772;2023-12-14T00:36:31;5.60;1.00
6206;DHT22;3136;48.788;9.772;2023-12-14T00:38:58;5.60;1.60
6206;DHT22;3136;48.788;9.772;2023-12-14T00:41:23;5.60;3.20
6206;DHT22;3136;48.788;9.772;2023-12-14T00:43:49;5.60;4.20
6206;DHT22;3136;48.788;9.772;2023-12-14T00:46:14;5.60;4.20
6206;DHT22;3136;48.788;9.772;2023-12-14T00:48:40;5.60;4.60
6206;DHT22;3136;48.788;9.772;2023-12-14T00:51:06;5.60;2.70
6206;DHT22;3136;48.788;9.772;2023-12-14T00:53:31;5.60;2.30
6206;DHT22;3136;48.788;9.772;2023-12-14T00:55:57;5.60;2.20
6206;DHT22;3136;48.788;9.772;2023-12-14T00:58:22;5.60;2.40
6206;DHT22;3136;48.788;9.772;2023-12-14T01:00:48;5.60;3.30
6206;DHT22;3136;48.788;9.772;2023-12-14T01:03:13;5.60;4.30
6206;DHT22;3136;48.788;9.772;2023-12-14T01:05:39;5.60;5.10
6206;DHT22;3136;48.788;9.772;2023-12-14T01:08:05;5.60;5.70
6206;DHT22;3136;48.788;9.772;2023-12-14T01:10:30;5.60;6.60
6206;DHT22;3136;48.788;9.772;2023-12-14T01:12:56;5.60;7.40
6206;DHT22;3136;48.788;9.772;2023-12-14T01:15:22;5.60;7.40
6206;DHT22;3136;48.788;9.772;2023-12-14T01:17:47;5.50;7.40
6206;DHT22;3136;48.788;9.772;2023-12-14T01:20:13;5.60;7.80
6206;DHT22;3136;48.788;9.772;2023-12-14T01:22:38;5.60;7.90
6206;DHT22;3136;48.788;9.772;2023-12-14T01:25:04;5.60;8.70
6206;DHT22;3136;48.788;9.772;2023-12-14T01:27:29;5.60;9.60
6206;DHT22;3136;48.788;9.772;2023-12-14T01:29:55;5.60;11.00
6206;DHT22;3136;48.788;9.772;2023-12-14T01:32:21;5.60;11.40
6206;DHT22;3136;48.788;9.772;2023-12-14T01:34:46;5.60;11.80
6206;DHT22;3136;48.788;9.772;2023-12-14T01:37:12;5.70;12.30
6206;DHT22;3136;48.788;9.772;2023-12-14T01:39:37;5.60;12.10
6206;DHT22;3136;48.788;9.772;2023-12-14T01:42:03;5.60;12.40
6206;DHT22;3136;48.788;9.772;2023-12-14T01:44:28;5.60;13.50
6206;DHT22;3136;48.788;9.772;2023-12-14T01:46:54;5.60;14.30
6206;DHT22;3136;48.788;9.772;2023-12-14T01:49:19;5.60;14.80
6206;DHT22;3136;48.788;9.772;2023-12-14T01:51:45;5.70;15.20
6206;DHT22;3136;48.788;9.772;2023-12-14T01:54:11;5.70;14.50
6206;DHT22;3136;48.788;9.772;2023-12-14T01:56:36;5.70;14.30
6206;DHT22;3136;48.788;9.772;2023-12-14T01:59:02;5.70;14.30
6206;DHT22;3136;48.788;9.772;2023-12-14T02:01:43;5.70;14.30
6206;DHT22;3136;48.788;9.772;2023-12-14T02:04:09;5.70;14.30
6206;DHT22;3136;48.788;9.772;2023-12-14T02:06:35;5.70;14.70
6206;DHT22;3136;48.788;9.772;2023-12-14T02:09:01;5.70;15.70
6206;DHT22;3136;48.788;9.772;2023-12-14T02:11:27;5.70;16.20
6206;DHT22;3136;48.788;9.772;2023-12-14T02:13:53;5.70;16.40
6206;DHT22;3136;48.788;9.772;2023-12-14T02:16:19;5.70;16.50
6206;DHT22;3136;48.788;9.772;2023-12-14T02:18:45;5.70;16.50
6206;DHT22;3136;48.788;9.772;2023-12-14T02:21:11;5.70;16.80
6206;DHT22;3136;48.788;9.772;2023-12-14T02:23:45;5.70;17.40
6206;DHT22;3136;48.788;9.772;2023-12-14T02:26:12;5.70;17.60
6206;DHT22;3136;48.788;9.772;2023-12-14T02:28:37;5.80;16.80
6206;DHT22;3136;48.788;9.772;2023-12-14T02:31:03;5.70;14.90
6206;DHT22;3136;48.788;9.772;2023-12-14T02:33:29;5.70;14.70
6206;DHT22;3136;48.788;9.772;2023-12-14T02:35:54;5.70;15.10
6206;DHT22;3136;48.788;9.772;2023-12-14T02:38:20;5.70;15.70
6206;DHT22;3136;48.788;9.772;2023-12-14T02:40:46;5.70;16.20
6206;DHT22;3136;48.788;9.772;2023-12-14T02:43:12;5.70;16.80
6206;DHT22;3136;48.788;9.772;2023-12-14T02:45:37;5.70;16.80
6206;DHT22;3136;48.788;9.772;2023-12-14T02:48:03;5.70;16.80
6206;DHT22;3136;48.788;9.772;2023-12-14T02:50:29;5.70;16.90
6206;DHT22;3136;48.788;9.772;2023-12-14T02:52:54;5.70;16.90
6206;DHT22;3136;48.788;9.772;2023-12-14T02:55:20;5.70;16.40
6206;DHT22;3136;48.788;9.772;2023-12-14T02:57:45;5.70;15.70
6206;DHT22;3136;48.788;9.772;2023-12-14T03:00:11;5.70;15.50
6206;DHT22;3136;48.788;9.772;2023-12-14T03:02:37;5.70;16.00
6206;DHT22;3136;48.788;9.772;2023-12-14T03:05:03;5.70;16.40
6206;DHT22;3136;48.788;9.772;2023-12-14T03:07:29;5.70;16.90
6206;DHT22;3136;48.788;9.772;2023-12-14T03:09:54;5.70;17.90
6206;DHT22;3136;48.788;9.772;2023-12-14T03:12:20;5.70;18.40
6206;DHT22;3136;48.788;9.772;2023-12-14T03:14:45;5.70;18.80
6206;DHT22;3136;48.788;9.772;2023-12-14T03:17:11;5.70;19.60
6206;DHT22;3136;48.788;9.772;2023-12-14T03:19:41;5.80;20.20
6206;DHT22;3136;48.788;9.772;2023-12-14T03:22:07;5.80;20.60
6206;DHT22;3136;48.788;9.772;2023-12-14T03:24:32;5.80;20.70
6206;DHT22;3136;48.788;9.772;2023-12-14T03:26:58;5.80;20.40
6206;DHT22;3136;48.788;9.772;2023-12-14T03:29:24;5.80;20.30
6206;DHT22;3136;48.788;9.772;2023-12-14T03:31:49;5.80;20.50
6206;DHT22;3136;48.788;9.772;2023-12-14T03:34:17;5.80;20.30
6206;DHT22;3136;48.788;9.772;2023-12-14T03:36:42;5.80;20.10
6206;DHT22;3136;48.788;9.772;2023-12-14T03:39:08;5.80;19.90
6206;DHT22;3136;48.788;9.772;2023-12-14T03:41:33;5.80;19.90
6206;DHT22;3136;48.788;9.772;2023-12-14T03:43:59;5.80;20.00
6206;DHT22;3136;48.788;9.772;2023-12-14T03:46:24;5.80;20.50
6206;DHT22;3136;48.788;9.772;2023-12-14T03:48:50;5.80;21.30
6206;DHT22;3136;48.788;9.772;2023-12-14T03:51:19;5.80;21.60
6206;DHT22;3136;48.788;9.772;2023-12-14T03:53:45;5.80;21.60
6206;DHT22;3136;48.788;9.772;2023-12-14T03:56:10;5.80;21.80
6206;DHT22;3136;48.788;9.772;2023-12-14T03:58:36;5.80;22.70
6206;DHT22;3136;48.788;9.772;2023-12-14T04:01:02;5.80;23.10
6206;DHT22;3136;48.788;9.772;2023-12-14T04:03:27;5.90;23.30
6206;DHT22;3136;48.788;9.772;2023-12-14T04:05:53;5.80;23.40
6206;DHT22;3136;48.788;9.772;2023-12-14T04:08:18;5.80;24.20
6206;DHT22;3136;48.788;9.772;2023-12-14T04:10:44;5.90;24.50
6206;DHT22;3136;48.788;9.772;2023-12-14T04:13:09;5.90;24.90
6206;DHT22;3136;48.788;9.772;2023-12-14T04:15:35;5.90;24.80
6206;DHT22;3136;48.788;9.772;2023-12-14T04:18:00;5.90;25.50
6206;DHT22;3136;48.788;9.772;2023-12-14T04:20:26;5.90;26.10
6206;DHT22;3136;48.788;9.772;2023-12-14T04:22:51;5.90;26.20
6206;DHT22;3136;48.788;9.772;2023-12-14T04:25:17;5.90;25.80
6206;DHT22;3136;48.788;9.772;2023-12-14T04:27:42;6.00;25.10
6206;DHT22;3136;48.788;9.772;2023-12-14T04:30:08;6.00;23.20
6206;DHT22;3136;48.788;9.772;2023-12-14T04:32:39;6.00;22.00
6206;DHT22;3136;48.788;9.772;2023-12-14T04:35:06;5.90;22.30
6206;DHT22;3136;48.788;9.772;2023-12-14T04:37:31;5.90;23.20
6206;DHT22;3136;48.788;9.772;2023-12-14T04:39:57;5.90;24.00
6206;DHT22;3136;48.788;9.772;2023-12-14T04:42:23;6.00;24.40
6206;DHT22;3136;48.788;9.772;2023-12-14T04:44:48;6.00;24.80
6206;DHT22;3136;48.788;9.772;2023-12-14T04:47:14;6.00;24.60
6206;DHT22;3136;48.788;9.772;2023-12-14T04:49:40;5.90;24.70
6206;DHT22;3136;48.788;9.772;2023-12-14T04:52:05;5.90;25.10
6206;DHT22;3136;48.788;9.772;2023-12-14T04:54:31;5.90;25.40
6206;DHT22;3136;48.788;9.772;2023-12-14T04:56:57;6.00;25.90
6206;DHT22;3136;48.788;9.772;2023-12-14T04:59:22;6.00;25.90
6206;DHT22;3136;48.788;9.772;2023-12-14T05:01:48;6.00;25.20
6206;DHT22;3136;48.788;9.772;2023-12-14T05:04:13;5.90;25.10
6206;DHT22;3136;48.788;9.772;2023-12-14T05:06:39;5.90;25.40
6206;DHT22;3136;48.788;9.772;2023-12-14T05:09:05;5.90;24.70
6206;DHT22;3136;48.788;9.772;2023-12-14T05:11:32;5.90;24.20
6206;DHT22;3136;48.788;9.772;2023-12-14T05:13:57;5.90;24.10
6206;DHT22;3136;48.788;9.772;2023-12-14T05:16:23;5.90;24.20
6206;DHT22;3136;48.788;9.772;2023-12-14T05:18:55;5.90;24.70
6206;DHT22;3136;48.788;9.772;2023-12-14T05:21:22;5.90;25.10
6206;DHT22;3136;48.788;9.772;2023-12-14T05:23:48;5.90;25.30
6206;DHT22;3136;48.788;9.772;2023-12-14T05:26:13;5.90;25.30
6206;DHT22;3136;48.788;9.772;2023-12-14T05:28:39;5.90;25.10
6206;DHT22;3136;48.788;9.772;2023-12-14T05:31:05;5.90;25.10
6206;DHT22;3136;48.788;9.772;2023-12-14T05:33:30;5.90;25.30
6206;DHT22;3136;48.788;9.772;2023-12-14T05:35:56;5.90;25.70
6206;DHT22;3136;48.788;9.772;2023-12-14T05:38:22;5.90;26.40
6206;DHT22;3136;48.788;9.772;2023-12-14T05:40:47;5.90;27.10
6206;DHT22;3136;48.788;9.772;2023-12-14T05:43:13;5.90;28.20
6206;DHT22;3136;48.788;9.772;2023-12-14T05:45:39;5.90;28.10
6206;DHT22;3136;48.788;9.772;2023-12-14T05:48:05;5.90;28.30
6206;DHT22;3136;48.788;9.772;2023-12-14T05:50:31;5.90;28.60
6206;DHT22;3136;48.788;9.772;2023-12-14T05:52:56;6.00;29.10
6206;DHT22;3136;48.788;9.772;2023-12-14T05:55:22;6.00;29.30
6206;DHT22;3136;48.788;9.772;2023-12-14T05:57:51;6.00;29.50
6206;DHT22;3136;48.788;9.772;2023-12-14T06:00:18;6.00;29.70
6206;DHT22;3136;48.788;9.772;2023-12-14T06:02:43;6.00;29.80
6206;DHT22;3136;48.788;9.772;2023-12-14T06:05:09;6.00;30.20
6206;DHT22;3136;48.788;9.772;2023-12-14T06:07:34;6.00;30.60
6206;DHT22;3136;48.788;9.772;2023-12-14T06:10:00;6.00;30.80
6206;DHT22;3136;48.788;9.772;2023-12-14T06:12:27;6.00;31.10
6206;DHT22;3136;48.788;9.772;2023-12-14T06:14:52;6.00;31.50
6206;DHT22;3136;48.788;9.772;2023-12-14T06:17:18;6.00;32.10
6206;DHT22;3136;48.788;9.772;2023-12-14T06:19:43;6.00;32.60
6206;DHT22;3136;48.788;9.772;2023-12-14T06:22:09;6.00;33.10
6206;DHT22;3136;48.788;9.772;2023-12-14T06:24:34;6.00;33.20
6206;DHT22;3136;48.788;9.772;2023-12-14T06:27:00;6.00;32.90
6206;DHT22;3136;48.788;9.772;2023-12-14T06:29:26;6.00;32.90
6206;DHT22;3136;48.788;9.772;2023-12-14T06:31:51;6.00;32.80
6206;DHT22;3136;48.788;9.772;2023-12-14T06:34:17;6.00;32.80
6206;DHT22;3136;48.788;9.772;2023-12-14T06:36:44;6.00;32.90
6206;DHT22;3136;48.788;9.772;2023-12-14T06:39:10;6.00;33.50
6206;DHT22;3136;48.788;9.772;2023-12-14T06:41:36;6.00;35.00
6206;DHT22;3136;48.788;9.772;2023-12-14T06:44:02;6.10;35.20
6206;DHT22;3136;48.788;9.772;2023-12-14T06:46:28;6.10;35.80
6206;DHT22;3136;48.788;9.772;2023-12-14T06:48:53;6.10;36.40
6206;DHT22;3136;48.788;9.772;2023-12-14T06:51:20;6.10;36.90
6206;DHT22;3136;48.788;9.772;2023-12-14T06:53:46;6.10;37.60
6206;DHT22;3136;48.788;9.772;2023-12-14T06:56:13;6.20;38.00
6206;DHT22;3136;48.788;9.772;2023-12-14T06:58:40;6.10;37.20
6206;DHT22;3136;48.788;9.772;2023-12-14T07:01:06;6.20;36.60
6206;DHT22;3136;48.788;9.772;2023-12-14T07:03:32;6.20;36.20
6206;DHT22;3136;48.788;9.772;2023-12-14T07:05:57;6.20;36.10
6206;DHT22;3136;48.788;9.772;2023-12-14T07:08:23;6.10;36.30
6206;DHT22;3136;48.788;9.772;2023-12-14T07:10:49;6.10;36.80
6206;DHT22;3136;48.788;9.772;2023-12-14T07:13:15;6.10;37.20
6206;DHT22;3136;48.788;9.772;2023-12-14T07:15:40;6.20;37.80
6206;DHT22;3136;48.788;9.772;2023-12-14T07:18:06;6.20;37.90
6206;DHT22;3136;48.788;9.772;2023-12-14T07:20:31;6.20;37.80
6206;DHT22;3136;48.788;9.772;2023-12-14T07:22:57;6.20;38.00
6206;DHT22;3136;48.788;9.772;2023-12-14T07:25:22;6.20;38.30
6206;DHT22;3136;48.788;9.772;2023-12-14T07:27:48;6.20;38.50
6206;DHT22;3136;48.788;9.772;2023-12-14T07:30:14;6.20;38.70
6206;DHT22;3136;48.788;9.772;2023-12-14T07:32:39;6.20;38.90
6206;DHT22;3136;48.788;9.772;2023-12-14T07:35:05;6.20;39.10
6206;DHT22;3136;48.788;9.772;2023-12-14T07:37:31;6.20;39.50
6206;DHT22;3136;48.788;9.772;2023-12-14T07:39:57;6.20;40.00
6206;DHT22;3136;48.788;9.772;2023-12-14T07:42:23;6.20;40.20
6206;DHT22;3136;48.788;9.772;2023-12-14T07:44:49;6.30;40.30
6206;DHT22;3136;48.788;9.772;2023-12-14T07:47:15;6.30;40.10
6206;DHT22;3136;48.788;9.772;2023-12-14T07:49:40;6.20;40.00
6206;DHT22;3136;48.788;9.772;2023-12-14T07:52:06;6.20;40.80
6206;DHT22;3136;48.788;9.772;2023-12-14T07:54:32;6.30;40.60
6206;DHT22;3136;48.788;9.772;2023-12-14T07:56:57;6.30;41.00
6206;DHT22;3136;48.788;9.772;2023-12-14T07:59:23;6.30;41.50
6206;DHT22;3136;48.788;9.772;2023-12-14T08:01:48;6.30;41.90
6206;DHT22;3136;48.788;9.772;2023-12-14T08:04:15;6.40;42.80
6206;DHT22;3136;48.788;9.772;2023-12-14T08:06:40;6.40;42.80
6206;DHT22;3136;48.788;9.772;2023-12-14T08:09:06;6.40;42.60
6206;DHT22;3136;48.788;9.772;2023-12-14T08:11:32;6.40;42.40
6206;DHT22;3136;48.788;9.772;2023-12-14T08:13:58;6.40;42.50
6206;DHT22;3136;48.788;9.772;2023-12-14T08:16:24;6.40;42.90
6206;DHT22;3136;48.788;9.772;2023-12-14T08:18:49;6.50;43.80
6206;DHT22;3136;48.788;9.772;2023-12-14T08:21:15;6.50;44.70
6206;DHT22;3136;48.788;9.772;2023-12-14T08:23:42;6.50;45.10
6206;DHT22;3136;48.788;9.772;2023-12-14T08:26:07;6.60;45.60
6206;DHT22;3136;48.788;9.772;2023-12-14T08:28:35;6.60;46.30
6206;DHT22;3136;48.788;9.772;2023-12-14T08:31:01;6.60;47.20
6206;DHT22;3136;48.788;9.772;2023-12-14T08:33:28;6.70;48.90
6206;DHT22;3136;48.788;9.772;2023-12-14T08:35:54;6.80;49.10
6206;DHT22;3136;48.788;9.772;2023-12-14T08:38:20;6.80;49.40
6206;DHT22;3136;48.788;9.772;2023-12-14T08:40:45;6.80;49.30
6206;DHT22;3136;48.788;9.772;2023-12-14T08:43:11;6.90;49.50
6206;DHT22;3136;48.788;9.772;2023-12-14T08:45:37;6.90;49.00
6206;DHT22;3136;48.788;9.772;2023-12-14T08:48:03;6.90;49.20
6206;DHT22;3136;48.788;9.772;2023-12-14T08:50:28;7.00;48.90
6206;DHT22;3136;48.788;9.772;2023-12-14T08:52:54;7.00;48.40
6206;DHT22;3136;48.788;9.772;2023-12-14T08:55:19;7.00;48.70
6206;DHT22;3136;48.788;9.772;2023-12-14T08:57:45;7.00;50.10
6206;DHT22;3136;48.788;9.772;2023-12-14T09:00:11;7.10;51.10
6206;DHT22;3136;48.788;9.772;2023-12-14T09:02:36;7.20;50.50
6206;DHT22;3136;48.788;9.772;2023-12-14T09:05:03;7.20;49.00
6206;DHT22;3136;48.788;9.772;2023-12-14T09:07:30;7.20;47.90
6206;DHT22;3136;48.788;9.772;2023-12-14T09:09:55;7.20;46.90
6206;DHT22;3136;48.788;9.772;2023-12-14T09:12:21;7.20;46.80
6206;DHT22;3136;48.788;9.772;2023-12-14T09:14:47;7.20;46.90
6206;DHT22;3136;48.788;9.772;2023-12-14T09:17:12;7.30;46.50
6206;DHT22;3136;48.788;9.772;2023-12-14T09:19:38;7.30;45.90
6206;DHT22;3136;48.788;9.772;2023-12-14T09:22:04;7.30;45.10
6206;DHT22;3136;48.788;9.772;2023-12-14T09:24:30;7.30;44.90
6206;DHT22;3136;48.788;9.772;2023-12-14T09:26:55;7.30;44.00
6206;DHT22;3136;48.788;9.772;2023-12-14T09:29:21;7.30;41.20
6206;DHT22;3136;48.788;9.772;2023-12-14T09:31:46;7.40;39.00
6206;DHT22;3136;48.788;9.772;2023-12-14T09:34:12;7.30;36.50
6206;DHT22;3136;48.788;9.772;2023-12-14T09:36:38;7.30;34.90
6206;DHT22;3136;48.788;9.772;2023-12-14T09:39:04;7.30;31.80
6206;DHT22;3136;48.788;9.772;2023-12-14T09:41:30;7.40;30.20
6206;DHT22;3136;48.788;9.772;2023-12-14T09:43:56;7.40;27.50
6206;DHT22;3136;48.788;9.772;2023-12-14T09:46:23;7.30;24.90
6206;DHT22;3136;48.788;9.772;2023-12-14T09:48:50;7.40;24.00
6206;DHT22;3136;48.788;9.772;2023-12-14T09:51:16;7.40;21.20
6206;DHT22;3136;48.788;9.772;2023-12-14T09:53:42;7.40;19.20
6206;DHT22;3136;48.788;9.772;2023-12-14T09:56:08;7.40;14.80
6206;DHT22;3136;48.788;9.772;2023-12-14T09:58:34;7.40;13.40
6206;DHT22;3136;48.788;9.772;2023-12-14T10:01:00;7.40;13.80
6206;DHT22;3136;48.788;9.772;2023-12-14T10:03:30;7.50;12.30
6206;DHT22;3136;48.788;9.772;2023-12-14T10:05:58;7.50;14.50
6206;DHT22;3136;48.788;9.772;2023-12-14T10:08:25;7.70;19.30
6206;DHT22;3136;48.788;9.772;2023-12-14T10:10:54;7.90;20.80
6206;DHT22;3136;48.788;9.772;2023-12-14T10:13:35;8.00;18.10
6206;DHT22;3136;48.788;9.772;2023-12-14T10:16:00;8.00;1.00
6206;DHT22;3136;48.788;9.772;2023-12-14T10:18:26;8.00;1.00
6206;DHT22;3136;48.788;9.772;2023-12-14T10:20:52;7.90;1.00
6206;DHT22;3136;48.788;9.772;2023-12-14T10:23:18;7.90;1.00
6206;DHT22;3136;48.788;9.772;2023-12-14T10:25:44;7.80;1.00
6206;DHT22;3136;48.788;9.772;2023-12-14T10:28:13;7.90;1.00
6206;DHT22;3136;48.788;9.772;2023-12-14T10:30:40;7.90;1.00
6206;DHT22;3136;48.788;9.772;2023-12-14T10:33:06;7.80;1.00
6206;DHT22;3136;48.788;9.772;2023-12-14T10:35:31;7.80;1.00
6206;DHT22;3136;48.788;9.772;2023-12-14T10:38:01;7.80;1.00
6206;DHT22;3136;48.788;9.772;2023-12-14T10:40:28;7.80;1.00
6206;DHT22;3136;48.788;9.772;2023-12-14T10:42:55;7.80;1.00
6206;DHT22;3136;48.788;9.772;2023-12-14T10:45:30;7.90;1.00
6206;DHT22;3136;48.788;9.772;2023-12-14T10:47:58;7.90;1.00
6206;DHT22;3136;48.788;9.772;2023-12-14T10:50:26;8.00;1.00
6206;DHT22;3136;48.788;9.772;2023-12-14T10:52:53;8.00;1.00
6206;DHT22;3136;48.788;9.772;2023-12-14T10:55:37;8.10;1.00
6206;DHT22;3136;48.788;9.772;2023-12-14T10:58:04;8.10;1.00
6206;DHT22;3136;48.788;9.772;2023-12-14T11:00:31;8.20;1.00
6206;DHT22;3136;48.788;9.772;2023-12-14T11:02:59;8.30;1.00
6206;DHT22;3136;48.788;9.772;2023-12-14T11:05:28;8.20;1.00
6206;DHT22;3136;48.788;9.772;2023-12-14T11:08:02;8.10;1.00
6206;DHT22;3136;48.788;9.772;2023-12-14T11:10:38;8.10;1.00
6206;DHT22;3136;48.788;9.772;2023-12-14T11:13:09;8.00;1.00
6206;DHT22;3136;48.788;9.772;2023-12-14T11:15:36;7.70;1.00
6206;DHT22;3136;48.788;9.772;2023-12-14T11:23:15;7.20;1.00
6206;DHT22;3136;48.788;9.772;2023-12-14T11:25:43;7.10;1.00
6206;DHT22;3136;48.788;9.772;2023-12-14T11:28:09;7.10;1.00
6206;DHT22;3136;48.788;9.772;2023-12-14T11:30:36;7.20;1.00
6206;DHT22;3136;48.788;9.772;2023-12-14T11:33:02;7.30;1.00
6206;DHT22;3136;48.788;9.772;2023-12-14T11:35:28;7.30;1.00
6206;DHT22;3136;48.788;9.772;2023-12-14T11:37:54;7.30;1.00
6206;DHT22;3136;48.788;9.772;2023-12-14T11:40:22;7.40;1.00
6206;DHT22;3136;48.788;9.772;2023-12-14T11:43:04;7.60;1.00
6206;DHT22;3136;48.788;9.772;2023-12-14T11:45:34;7.60;1.00
6206;DHT22;3136;48.788;9.772;2023-12-14T11:48:00;7.70;1.00
6206;DHT22;3136;48.788;9.772;2023-12-14T11:50:27;7.70;1.00
6206;DHT22;3136;48.788;9.772;2023-12-14T11:52:53;7.70;1.00
6206;DHT22;3136;48.788;9.772;2023-12-14T11:55:19;7.80;1.00
6206;DHT22;3136;48.788;9.772;2023-12-14T11:57:47;7.90;1.00
6206;DHT22;3136;48.788;9.772;2023-12-14T12:00:14;7.90;1.00
6206;DHT22;3136;48.788;9.772;2023-12-14T12:02:40;8.00;1.00
6206;DHT22;3136;48.788;9.772;2023-12-14T12:05:08;8.00;1.00
6206;DHT22;3136;48.788;9.772;2023-12-14T12:07:39;8.00;1.00
6206;DHT22;3136;48.788;9.772;2023-12-14T12:10:05;8.00;1.00
6206;DHT22;3136;48.788;9.772;2023-12-14T12:12:33;8.10;1.00
6206;DHT22;3136;48.788;9.772;2023-12-14T12:14:59;8.10;1.00
6206;DHT22;3136;48.788;9.772;2023-12-14T12:17:24;8.20;1.00
6206;DHT22;3136;48.788;9.772;2023-12-14T12:19:51;8.30;1.00
6206;DHT22;3136;48.788;9.772;2023-12-14T12:22:17;8.30;1.00
6206;DHT22;3136;48.788;9.772;2023-12-14T12:24:42;8.40;1.00
6206;DHT22;3136;48.788;9.772;2023-12-14T12:27:08;8.40;1.00
6206;DHT22;3136;48.788;9.772;2023-12-14T12:29:34;8.40;1.00
6206;DHT22;3136;48.788;9.772;2023-12-14T12:32:00;8.30;1.00
6206;DHT22;3136;48.788;9.772;2023-12-14T12:34:26;8.20;1.00
6206;DHT22;3136;48.788;9.772;2023-12-14T12:36:51;8.20;1.00
6206;DHT22;3136;48.788;9.772;2023-12-14T12:39:17;8.20;1.00
6206;DHT22;3136;48.788;9.772;2023-12-14T12:41:43;8.20;1.00
6206;DHT22;3136;48.788;9.772;2023-12-14T12:44:08;8.20;1.00
6206;DHT22;3136;48.788;9.772;2023-12-14T12:46:37;8.20;1.00
6206;DHT22;3136;48.788;9.772;2023-12-14T12:49:04;8.20;1.00
6206;DHT22;3136;48.788;9.772;2023-12-14T12:51:31;8.30;1.00
6206;DHT22;3136;48.788;9.772;2023-12-14T12:53:59;8.30;1.00
6206;DHT22;3136;48.788;9.772;2023-12-14T12:56:26;8.30;1.00
6206;DHT22;3136;48.788;9.772;2023-12-14T12:58:53;8.30;1.00
6206;DHT22;3136;48.788;9.772;2023-12-14T13:01:22;8.20;1.00
6206;DHT22;3136;48.788;9.772;2023-12-14T13:03:53;8.20;1.00
6206;DHT22;3136;48.788;9.772;2023-12-14T13:06:19;8.20;1.00
6206;DHT22;3136;48.788;9.772;2023-12-14T13:08:45;8.20;1.00
6206;DHT22;3136;48.788;9.772;2023-12-14T13:11:11;8.10;1.00
6206;DHT22;3136;48.788;9.772;2023-12-14T13:13:36;8.10;1.00
6206;DHT22;3136;48.788;9.772;2023-12-14T13:16:02;8.10;1.00
6206;DHT22;3136;48.788;9.772;2023-12-14T13:18:27;8.10;1.00
6206;DHT22;3136;48.788;9.772;2023-12-14T13:20:53;8.10;1.00
6206;DHT22;3136;48.788;9.772;2023-12-14T13:23:19;8.10;1.00
6206;DHT22;3136;48.788;9.772;2023-12-14T13:25:44;8.10;1.00
6206;DHT22;3136;48.788;9.772;2023-12-14T13:28:10;8.10;1.00
6206;DHT22;3136;48.788;9.772;2023-12-14T13:30:36;8.10;1.00
6206;DHT22;3136;48.788;9.772;2023-12-14T13:33:01;8.10;1.00
6206;DHT22;3136;48.788;9.772;2023-12-14T13:35:29;8.10;1.00
6206;DHT22;3136;48.788;9.772;2023-12-14T13:37:55;8.10;1.00
6206;DHT22;3136;48.788;9.772;2023-12-14T13:40:20;8.10;1.00
6206;DHT22;3136;48.788;9.772;2023-12-14T13:42:46;8.10;1.00
6206;DHT22;3136;48.788;9.772;2023-12-14T13:45:11;8.10;1.00
6206;DHT22;3136;48.788;9.772;2023-12-14T13:47:37;8.00;1.00
6206;DHT22;3136;48.788;9.772;2023-12-14T13:50:03;8.10;1.00
6206;DHT22;3136;48.788;9.772;2023-12-14T13:52:29;8.10;1.00
6206;DHT22;3136;48.788;9.772;2023-12-14T13:54:55;8.10;1.00
6206;DHT22;3136;48.788;9.772;2023-12-14T13:57:22;8.00;1.00
6206;DHT22;3136;48.788;9.772;2023-12-14T13:59:47;7.90;1.00
6206;DHT22;3136;48.788;9.772;2023-12-14T14:02:13;7.90;1.00
6206;DHT22;3136;48.788;9.772;2023-12-14T14:04:39;7.80;1.00
6206;DHT22;3136;48.788;9.772;2023-12-14T14:07:04;7.70;1.00
6206;DHT22;3136;48.788;9.772;2023-12-14T14:09:30;7.60;1.00
6206;DHT22;3136;48.788;9.772;2023-12-14T14:11:56;7.50;1.00
6206;DHT22;3136;48.788;9.772;2023-12-14T14:14:21;7.50;1.00
6206;DHT22;3136;48.788;9.772;2023-12-14T14:16:48;7.40;1.00
6206;DHT22;3136;48.788;9.772;2023-12-14T14:19:14;7.40;1.00
6206;DHT22;3136;48.788;9.772;2023-12-14T14:21:40;7.30;1.00
6206;DHT22;3136;48.788;9.772;2023-12-14T14:24:06;7.30;1.00
6206;DHT22;3136;48.788;9.772;2023-12-14T14:26:31;7.30;1.00
6206;DHT22;3136;48.788;9.772;2023-12-14T14:28:57;7.30;1.00
6206;DHT22;3136;48.788;9.772;2023-12-14T14:31:29;7.20;1.00
6206;DHT22;3136;48.788;9.772;2023-12-14T14:34:00;7.20;1.00
6206;DHT22;3136;48.788;9.772;2023-12-14T14:36:26;7.30;1.00
6206;DHT22;3136;48.788;9.772;2023-12-14T14:38:51;7.30;1.00
6206;DHT22;3136;48.788;9.772;2023-12-14T14:41:20;7.20;1.00
6206;DHT22;3136;48.788;9.772;2023-12-14T14:43:45;7.20;1.00
6206;DHT22;3136;48.788;9.772;2023-12-14T14:46:11;7.10;1.00
6206;DHT22;3136;48.788;9.772;2023-12-14T14:48:37;7.10;1.00
6206;DHT22;3136;48.788;9.772;2023-12-14T14:51:03;7.00;1.00
6206;DHT22;3136;48.788;9.772;2023-12-14T14:53:29;7.00;1.00
6206;DHT22;3136;48.788;9.772;2023-12-14T14:55:55;6.90;1.00
6206;DHT22;3136;48.788;9.772;2023-12-14T14:58:21;6.90;1.00
6206;DHT22;3136;48.788;9.772;2023-12-14T15:00:47;6.90;1.00
6206;DHT22;3136;48.788;9.772;2023-12-14T15:03:13;6.90;1.00
6206;DHT22;3136;48.788;9.772;2023-12-14T15:05:39;6.90;1.00
6206;DHT22;3136;48.788;9.772;2023-12-14T15:08:05;6.90;1.00
6206;DHT22;3136;48.788;9.772;2023-12-14T15:10:34;6.90;1.00
6206;DHT22;3136;48.788;9.772;2023-12-14T15:13:00;6.80;1.00
6206;DHT22;3136;48.788;9.772;2023-12-14T15:15:26;6.90;1.00
6206;DHT22;3136;48.788;9.772;2023-12-14T15:17:51;6.80;1.00
6206;DHT22;3136;48.788;9.772;2023-12-14T15:20:17;6.90;1.00
6206;DHT22;3136;48.788;9.772;2023-12-14T15:22:43;6.80;1.00
6206;DHT22;3136;48.788;9.772;2023-12-14T15:25:08;6.80;1.00
6206;DHT22;3136;48.788;9.772;2023-12-14T15:27:34;6.80;1.00
6206;DHT22;3136;48.788;9.772;2023-12-14T15:30:00;6.80;1.00
6206;DHT22;3136;48.788;9.772;2023-12-14T15:32:26;6.80;1.00
6206;DHT22;3136;48.788;9.772;2023-12-14T15:34:51;6.80;1.00
6206;DHT22;3136;48.788;9.772;2023-12-14T15:37:17;6.80;1.00
6206;DHT22;3136;48.788;9.772;2023-12-14T15:39:43;6.80;1.00
6206;DHT22;3136;48.788;9.772;2023-12-14T15:42:16;6.80;1.00
6206;DHT22;3136;48.788;9.772;2023-12-14T15:44:42;6.80;1.00
6206;DHT22;3136;48.788;9.772;2023-12-14T15:47:12;6.70;1.00
6206;DHT22;3136;48.788;9.772;2023-12-14T15:49:38;7.20;1.00
6206;DHT22;3136;48.788;9.772;2023-12-14T15:52:04;6.70;1.00
6206;DHT22;3136;48.788;9.772;2023-12-14T15:54:30;6.70;1.00
6206;DHT22;3136;48.788;9.772;2023-12-14T15:56:55;6.70;1.00
6206;DHT22;3136;48.788;9.772;2023-12-14T15:59:21;6.70;1.00
6206;DHT22;3136;48.788;9.772;2023-12-14T16:01:46;6.70;1.00
6206;DHT22;3136;48.788;9.772;2023-12-14T16:04:12;6.70;1.00
6206;DHT22;3136;48.788;9.772;2023-12-14T16:06:38;6.70;1.00
6206;DHT22;3136;48.788;9.772;2023-12-14T16:09:03;6.70;1.00
6206;DHT22;3136;48.788;9.772;2023-12-14T16:11:29;6.70;1.00
6206;DHT22;3136;48.788;9.772;2023-12-14T16:13:54;6.70;1.00
6206;DHT22;3136;48.788;9.772;2023-12-14T16:16:22;6.70;1.00
6206;DHT22;3136;48.788;9.772;2023-12-14T16:18:48;6.70;1.00
6206;DHT22;3136;48.788;9.772;2023-12-14T16:21:14;6.70;1.00